Time;durP1;ratioP1;P1;durP2;ratioP2;P2;SDS_P1;SDS_P2;PMS_P1;PMS_P2;Temp;Humidity;BMP_temperature;BMP_pressure;BME280_temperature;BME280_humidity;BME280_pressure;Samples;Min_cycle;Max_cycle;Signal;HPM_P1;HPM_P2
2021/03/15 00:00:52;;;;;;;5.53;0.70;;;5.40;99.90;;;;;;5009265;28;20029;-81
2021/03/15 00:03:18;;;;;;;4.15;0.90;;;5.40;99.90;;;;;;4992768;28;20125;-81
2021/03/15 00:06:04;;;;;;;11.38;1.58;;;5.40;99.90;;;;;;4992248;28;20062;-81
2021/03/15 00:08:32;;;;;;;4.45;0.98;;;5.40;99.90;;;;;;4911620;29;20132;-81
2021/03/15 00:10:58;;;;;;;4.68;0.90;;;5.40;99.90;;;;;;4911579;29;20051;-81
2021/03/15 00:13:24;;;;;;;4.88;0.77;;;5.40;99.90;;;;;;4927463;29;20047;-81
2021/03/15 00:15:51;;;;;;;5.53;0.90;;;5.40;99.90;;;;;;4931972;29;20059;-81
2021/03/15 00:18:18;;;;;;;4.35;0.90;;;5.40;99.90;;;;;;4930537;29;20035;-81
2021/03/15 00:20:45;;;;;;;4.40;0.70;;;5.40;99.90;;;;;;4930235;29;20027;-81
2021/03/15 00:23:11;;;;;;;3.38;0.52;;;5.40;99.90;;;;;;4930276;29;20035;-81
2021/03/15 00:25:37;;;;;;;2.60;0.80;;;5.40;99.90;;;;;;4930185;29;20106;-81
2021/03/15 00:28:03;;;;;;;3.30;0.68;;;5.40;99.90;;;;;;4930509;29;20028;-81
2021/03/15 00:30:29;;;;;;;2.83;0.50;;;5.40;99.90;;;;;;4930345;29;20127;-81
2021/03/15 00:32:55;;;;;;;3.88;1.10;;;5.40;99.90;;;;;;4945919;29;20469;-81
2021/03/15 00:35:21;;;;;;;6.65;1.10;;;5.40;99.90;;;;;;4945766;29;20041;-81
2021/03/15 00:37:47;;;;;;;7.63;1.85;;;5.30;99.90;;;;;;4930056;29;20036;-81
2021/03/15 00:40:16;;;;;;;4.10;0.85;;;5.40;99.90;;;;;;4930113;29;20040;-82
2021/03/15 00:42:44;;;;;;;6.10;0.90;;;5.30;99.90;;;;;;4929826;29;20060;-82
2021/03/15 00:45:11;;;;;;;2.85;0.70;;;5.40;99.90;;;;;;4956043;28;20054;-82
2021/03/15 00:47:36;;;;;;;3.50;0.60;;;5.40;99.90;;;;;;4969454;28;20033;-81
2021/03/15 00:50:07;;;;;;;6.47;1.08;;;5.30;99.90;;;;;;4969900;28;20035;-81
2021/03/15 00:52:33;;;;;;;2.20;0.40;;;5.40;99.90;;;;;;4969223;28;20041;-81
2021/03/15 00:54:59;;;;;;;3.78;0.50;;;5.30;99.90;;;;;;4985415;28;20039;-82
2021/03/15 00:57:29;;;;;;;4.63;0.50;;;5.30;99.90;;;;;;4970062;28;20057;-82
2021/03/15 00:59:55;;;;;;;8.95;0.93;;;5.30;99.90;;;;;;4953495;28;20054;-81
2021/03/15 01:02:21;;;;;;;4.15;0.77;;;5.30;99.90;;;;;;4969470;28;20062;-81
2021/03/15 01:04:47;;;;;;;4.57;0.75;;;5.30;99.90;;;;;;4985253;28;20035;-82
2021/03/15 01:07:21;;;;;;;4.95;0.73;;;5.30;99.90;;;;;;4970301;28;20062;-82
2021/03/15 01:09:47;;;;;;;3.15;0.60;;;5.30;99.90;;;;;;4985530;28;20027;-82
2021/03/15 01:12:28;;;;;;;3.58;0.40;;;5.20;99.90;;;;;;4969314;28;20027;-82
2021/03/15 01:14:54;;;;;;;1.90;0.40;;;5.30;99.90;;;;;;4969397;28;20058;-82
2021/03/15 01:17:26;;;;;;;2.40;0.40;;;5.20;99.90;;;;;;4992377;28;20030;-82
2021/03/15 01:19:54;;;;;;;4.30;0.40;;;5.20;99.90;;;;;;4992676;28;20027;-82
2021/03/15 01:22:19;;;;;;;3.75;0.50;;;5.20;99.90;;;;;;4976200;28;20037;-81
2021/03/15 01:24:45;;;;;;;3.10;0.45;;;5.20;99.90;;;;;;4992382;28;20073;-81
2021/03/15 01:27:10;;;;;;;1.90;0.40;;;5.20;99.90;;;;;;5008524;28;20083;-82
2021/03/15 01:29:36;;;;;;;3.83;0.70;;;5.20;99.90;;;;;;4976575;28;20030;-82
2021/03/15 01:32:02;;;;;;;4.55;0.50;;;5.20;99.90;;;;;;4992515;28;20054;-82
2021/03/15 01:34:27;;;;;;;3.78;0.55;;;5.20;99.90;;;;;;4992413;28;20038;-81
2021/03/15 01:36:53;;;;;;;2.03;0.50;;;5.20;99.90;;;;;;4992215;28;20041;-82
2021/03/15 01:39:18;;;;;;;2.50;0.80;;;5.20;99.90;;;;;;4976112;28;20405;-81
2021/03/15 01:41:44;;;;;;;2.05;0.60;;;5.20;99.90;;;;;;5008795;28;20102;-82
2021/03/15 01:44:09;;;;;;;2.13;0.50;;;5.20;99.90;;;;;;4991975;28;20038;-82
2021/03/15 01:46:35;;;;;;;2.50;0.55;;;5.30;99.90;;;;;;4992379;28;20100;-82
2021/03/15 01:49:01;;;;;;;5.03;0.70;;;5.30;99.90;;;;;;4992348;28;20121;-82
2021/03/15 01:51:26;;;;;;;3.05;0.80;;;5.30;99.90;;;;;;4992139;28;20046;-81
2021/03/15 01:53:52;;;;;;;2.78;0.40;;;5.30;99.90;;;;;;4991955;28;20022;-82
2021/03/15 01:56:18;;;;;;;4.72;0.60;;;5.30;99.90;;;;;;4992280;28;20080;-82
2021/03/15 01:58:45;;;;;;;2.85;0.93;;;5.30;99.90;;;;;;4992276;28;20534;-82
2021/03/15 02:01:11;;;;;;;4.85;0.60;;;5.30;99.90;;;;;;5008254;28;20030;-82
2021/03/15 02:03:37;;;;;;;2.45;0.50;;;5.30;99.90;;;;;;4992311;28;20065;-82
2021/03/15 02:06:03;;;;;;;3.80;0.80;;;5.30;99.90;;;;;;4976903;28;20035;-82
2021/03/15 02:08:29;;;;;;;2.22;0.70;;;5.30;99.90;;;;;;5005241;28;20050;-82
2021/03/15 02:10:54;;;;;;;3.75;0.88;;;5.30;99.90;;;;;;5011197;28;20066;-82
2021/03/15 02:13:31;;;;;;;1.95;0.52;;;5.30;99.90;;;;;;5028623;28;20022;-82
2021/03/15 02:16:32;;;;;;;3.95;0.65;;;5.30;99.90;;;;;;4991499;28;20098;-82
2021/03/15 02:19:22;;;;;;;4.43;1.00;;;5.30;99.90;;;;;;5005354;28;20053;-82
2021/03/15 02:22:15;;;;;;;3.30;0.73;;;5.30;99.90;;;;;;4998762;28;20066;-82
2021/03/15 02:25:07;;;;;;;3.47;0.70;;;5.30;99.90;;;;;;4994442;28;20049;-82
2021/03/15 02:28:01;;;;;;;3.13;0.70;;;5.20;99.90;;;;;;5010528;28;20026;-82
2021/03/15 02:30:55;;;;;;;3.05;1.35;;;5.10;99.90;;;;;;4994635;28;20040;-82
2021/03/15 02:34:00;;;;;;;1.50;0.50;;;5.10;99.90;;;;;;4994258;28;20049;-82
2021/03/15 02:36:31;;;;;;;2.10;0.40;;;5.10;99.90;;;;;;5010514;28;20034;-82
2021/03/15 02:38:58;;;;;;;1.20;0.50;;;5.10;99.90;;;;;;5010503;28;20133;-81
2021/03/15 02:41:24;;;;;;;1.40;0.50;;;5.00;99.90;;;;;;5027024;28;20034;-82
2021/03/15 02:44:02;;;;;;;4.82;0.50;;;5.00;99.90;;;;;;5010375;28;20026;-82
2021/03/15 02:46:29;;;;;;;1.45;0.40;;;5.00;99.90;;;;;;5026946;28;20041;-82
2021/03/15 02:48:59;;;;;;;1.67;0.50;;;5.00;99.90;;;;;;4994173;28;20044;-82
2021/03/15 02:51:28;;;;;;;3.03;0.60;;;5.00;99.90;;;;;;4990918;28;20034;-82
2021/03/15 02:53:57;;;;;;;3.53;0.47;;;4.90;99.90;;;;;;4990568;28;20341;-82
2021/03/15 02:56:25;;;;;;;2.17;0.40;;;5.00;99.90;;;;;;4990832;28;20064;-82
2021/03/15 02:58:54;;;;;;;1.60;0.40;;;4.90;99.90;;;;;;4990786;28;20405;-82
2021/03/15 03:01:22;;;;;;;1.98;0.30;;;4.90;99.90;;;;;;4992995;28;20064;-82
2021/03/15 03:03:50;;;;;;;0.70;0.20;;;4.90;99.90;;;;;;4990404;28;20037;-82
2021/03/15 03:06:18;;;;;;;2.60;0.30;;;4.90;99.90;;;;;;4990734;28;20039;-82
2021/03/15 03:08:45;;;;;;;0.65;0.20;;;4.90;99.90;;;;;;4990168;28;20110;-82
2021/03/15 03:11:11;;;;;;;0.98;0.30;;;4.90;99.90;;;;;;4990555;28;20030;-82
2021/03/15 03:13:38;;;;;;;1.40;0.30;;;4.90;99.90;;;;;;5006723;28;20034;-82
2021/03/15 03:16:04;;;;;;;1.55;0.40;;;4.90;99.90;;;;;;5006603;28;20057;-82
2021/03/15 03:18:31;;;;;;;1.33;0.25;;;4.90;99.90;;;;;;4990504;28;20163;-82
2021/03/15 03:20:58;;;;;;;1.20;0.40;;;4.90;99.90;;;;;;4990478;28;20391;-82
2021/03/15 03:23:29;;;;;;;1.42;0.40;;;4.90;99.90;;;;;;4990340;28;20060;-82
2021/03/15 03:25:56;;;;;;;2.03;0.30;;;4.90;99.90;;;;;;4990151;28;20127;-82
2021/03/15 03:28:24;;;;;;;2.33;0.40;;;4.90;99.90;;;;;;4990305;28;20058;-82
2021/03/15 03:30:50;;;;;;;1.55;0.30;;;4.90;99.90;;;;;;4990091;28;20034;-82
2021/03/15 03:33:17;;;;;;;1.65;0.32;;;4.90;99.90;;;;;;4990037;28;20098;-82
2021/03/15 03:35:44;;;;;;;0.93;0.30;;;4.90;99.90;;;;;;5006230;28;20058;-82
2021/03/15 03:38:11;;;;;;;3.00;0.50;;;4.90;99.90;;;;;;4989975;28;20034;-82
2021/03/15 03:40:37;;;;;;;1.67;0.30;;;4.90;99.90;;;;;;4989313;28;20403;-82
2021/03/15 03:43:03;;;;;;;3.25;0.50;;;4.90;99.90;;;;;;5006182;28;20106;-82
2021/03/15 03:45:29;;;;;;;5.05;0.50;;;4.90;99.90;;;;;;4989708;28;20038;-82
2021/03/15 03:47:55;;;;;;;2.85;0.70;;;4.90;99.90;;;;;;4989913;28;20548;-82
2021/03/15 03:50:31;;;;;;;1.75;0.43;;;5.00;99.90;;;;;;5006047;28;20034;-82
2021/03/15 03:53:06;;;;;;;3.25;0.60;;;5.00;99.90;;;;;;5022390;28;20112;-82
2021/03/15 03:55:38;;;;;;;3.70;0.70;;;5.00;99.90;;;;;;5005839;28;20034;-82
2021/03/15 03:58:07;;;;;;;2.35;0.73;;;5.00;99.90;;;;;;5006290;28;20056;-82
2021/03/15 04:00:33;;;;;;;4.73;0.87;;;5.10;99.90;;;;;;5005924;28;20038;-82
2021/03/15 04:03:20;;;;;;;5.43;1.50;;;5.10;99.90;;;;;;5005749;28;20471;-82
2021/03/15 04:06:08;;;;;;;3.90;1.23;;;5.10;99.90;;;;;;5005461;28;20046;-81
2021/03/15 04:08:55;;;;;;;4.95;1.35;;;5.10;99.90;;;;;;4968995;28;20110;-82
2021/03/15 04:11:25;;;;;;;6.60;1.67;;;5.10;99.90;;;;;;4968710;28;20616;-82
2021/03/15 04:13:54;;;;;;;7.40;1.88;;;5.10;99.90;;;;;;4968754;28;20049;-82
2021/03/15 04:16:29;;;;;;;7.25;1.50;;;5.10;99.90;;;;;;4960295;29;20040;-82
2021/03/15 04:18:55;;;;;;;7.82;1.60;;;5.10;99.90;;;;;;4949689;29;20097;-82
2021/03/15 04:21:26;;;;;;;8.13;1.83;;;5.10;99.90;;;;;;4965590;29;20569;-82
2021/03/15 04:23:54;;;;;;;6.55;1.50;;;5.10;99.90;;;;;;4949531;29;20046;-82
2021/03/15 04:26:22;;;;;;;8.52;2.13;;;5.10;99.90;;;;;;4965504;29;20051;-82
2021/03/15 04:28:49;;;;;;;9.63;2.88;;;5.20;99.90;;;;;;4949629;29;20069;-82
2021/03/15 04:31:16;;;;;;;5.93;2.20;;;5.10;99.90;;;;;;4949235;29;20050;-82
2021/03/15 04:33:44;;;;;;;9.18;2.72;;;5.20;99.90;;;;;;4949265;29;20130;-82
2021/03/15 04:36:13;;;;;;;10.68;2.80;;;5.20;99.90;;;;;;4948997;29;20074;-81
2021/03/15 04:38:40;;;;;;;7.85;2.60;;;5.10;99.90;;;;;;4949439;29;20113;-81
2021/03/15 04:41:06;;;;;;;8.57;2.53;;;5.20;99.90;;;;;;4949201;29;20062;-82
2021/03/15 04:43:33;;;;;;;5.63;2.33;;;5.20;99.90;;;;;;4949049;29;20038;-82
2021/03/15 04:45:59;;;;;;;5.43;2.03;;;5.10;99.90;;;;;;4978609;28;20051;-81
2021/03/15 04:48:29;;;;;;;5.55;1.80;;;5.20;99.90;;;;;;4953635;28;20031;-82
2021/03/15 04:50:58;;;;;;;9.25;3.35;;;5.10;99.90;;;;;;4968053;28;20058;-82
2021/03/15 04:53:25;;;;;;;7.97;3.05;;;5.20;99.90;;;;;;4969451;28;20035;-82
2021/03/15 04:55:55;;;;;;;7.60;2.97;;;5.20;99.90;;;;;;4969090;28;20090;-81
2021/03/15 04:58:21;;;;;;;10.80;3.60;;;5.20;99.90;;;;;;4953625;28;20035;-82
2021/03/15 05:00:50;;;;;;;6.88;2.80;;;5.20;99.90;;;;;;4985619;28;20074;-81
2021/03/15 05:03:17;;;;;;;9.43;3.58;;;5.20;99.90;;;;;;4969450;28;20046;-81
2021/03/15 05:06:03;;;;;;;6.78;2.15;;;5.20;99.90;;;;;;4968301;28;20051;-81
2021/03/15 05:08:34;;;;;;;6.90;2.65;;;5.20;99.90;;;;;;4925785;29;20055;-80
2021/03/15 05:11:03;;;;;;;4.97;2.10;;;5.10;99.90;;;;;;4948578;29;20070;-81
2021/03/15 05:13:32;;;;;;;8.90;2.92;;;5.00;99.90;;;;;;4964842;29;20058;-81
2021/03/15 05:15:59;;;;;;;6.22;2.47;;;5.10;99.90;;;;;;4932497;29;20031;-81
2021/03/15 05:18:27;;;;;;;7.80;3.58;;;5.10;99.90;;;;;;4929409;29;20027;-81
2021/03/15 05:20:53;;;;;;;11.32;3.42;;;5.10;99.90;;;;;;4929125;29;20044;-81
2021/03/15 05:23:20;;;;;;;14.25;4.53;;;5.10;99.90;;;;;;4929751;29;20138;-81
2021/03/15 05:25:50;;;;;;;17.70;5.65;;;5.20;99.90;;;;;;4915585;29;20087;-81
2021/03/15 05:28:17;;;;;;;14.18;4.70;;;5.10;99.90;;;;;;4918313;29;20136;-81
2021/03/15 05:30:43;;;;;;;10.52;4.90;;;5.10;99.90;;;;;;4945612;29;20032;-81
2021/03/15 05:33:14;;;;;;;10.77;4.22;;;5.10;99.90;;;;;;4913454;29;20047;-81
2021/03/15 05:35:44;;;;;;;10.65;5.20;;;5.10;99.90;;;;;;4929168;29;20032;-80
2021/03/15 05:38:10;;;;;;;;;;;5.10;99.90;;;;;;4914001;29;20036;-81
2021/03/15 05:40:42;;;;;;;12.55;3.80;;;5.00;99.90;;;;;;4945583;29;20010;-81
2021/03/15 05:43:21;;;;;;;12.30;5.07;;;5.00;99.90;;;;;;4929925;29;20071;-81
2021/03/15 05:46:16;;;;;;;13.60;4.03;;;4.90;99.90;;;;;;4958042;28;20043;-81
2021/03/15 05:49:19;;;;;;;9.35;3.15;;;4.80;99.90;;;;;;4969180;28;20027;-81
2021/03/15 05:52:03;;;;;;;12.35;3.90;;;4.80;99.90;;;;;;4970141;28;20053;-81
2021/03/15 05:54:56;;;;;;;13.02;4.03;;;4.70;99.90;;;;;;4971932;28;20037;-81
2021/03/15 05:58:01;;;;;;;14.20;3.80;;;4.60;99.90;;;;;;4988022;28;20058;-81
2021/03/15 06:01:03;;;;;;;10.05;3.05;;;4.60;99.90;;;;;;4971241;28;20034;-81
2021/03/15 06:03:55;;;;;;;10.38;3.28;;;4.70;99.90;;;;;;4974018;28;20034;-81
2021/03/15 06:06:23;;;;;;;7.65;2.40;;;4.60;99.90;;;;;;4990471;28;20035;-81
2021/03/15 06:08:55;;;;;;;8.38;2.90;;;4.70;99.90;;;;;;5025260;28;20387;-81
2021/03/15 06:11:26;;;;;;;11.32;3.10;;;4.70;99.90;;;;;;4994249;28;20026;-81
2021/03/15 06:13:52;;;;;;;8.98;2.72;;;4.60;99.90;;;;;;4993940;28;20041;-81
2021/03/15 06:16:19;;;;;;;8.32;2.65;;;4.70;99.90;;;;;;4993663;28;20035;-81
2021/03/15 06:18:44;;;;;;;11.75;2.55;;;4.70;99.90;;;;;;4993255;28;20034;-81
2021/03/15 06:21:11;;;;;;;7.72;2.40;;;4.80;99.90;;;;;;4973640;28;20049;-81
2021/03/15 06:23:37;;;;;;;12.32;3.80;;;4.80;99.90;;;;;;4990616;28;20042;-81
2021/03/15 06:26:04;;;;;;;9.57;2.53;;;4.90;99.90;;;;;;4974401;28;20049;-81
2021/03/15 06:28:30;;;;;;;8.77;2.85;;;4.90;99.90;;;;;;4974425;28;20030;-81
2021/03/15 06:30:56;;;;;;;9.32;2.33;;;4.90;99.90;;;;;;4974562;28;20026;-80
2021/03/15 06:33:22;;;;;;;8.32;4.03;;;4.90;99.90;;;;;;4974086;28;20082;-81
2021/03/15 06:35:57;;;;;;;7.40;2.72;;;4.90;99.90;;;;;;4990126;28;20089;-81
2021/03/15 06:38:23;;;;;;;10.10;2.65;;;4.90;99.90;;;;;;4980787;28;20036;-82
2021/03/15 06:40:50;;;;;;;9.52;2.65;;;4.90;99.90;;;;;;5009876;28;20026;-82
2021/03/15 06:43:19;;;;;;;9.30;3.50;;;5.00;99.90;;;;;;5009590;28;20431;-81
2021/03/15 06:45:52;;;;;;;10.20;3.05;;;5.10;99.90;;;;;;5009767;28;20042;-81
2021/03/15 06:48:21;;;;;;;8.23;2.70;;;5.10;99.90;;;;;;4993493;28;20037;-81
2021/03/15 06:50:48;;;;;;;9.95;3.28;;;5.20;99.90;;;;;;4999664;28;20038;-81
2021/03/15 06:53:14;;;;;;;11.05;2.85;;;5.30;99.90;;;;;;4973740;28;20030;-81
2021/03/15 06:55:50;;;;;;;11.27;2.70;;;5.40;99.90;;;;;;4974001;28;20073;-81
2021/03/15 06:58:19;;;;;;;7.78;2.47;;;5.40;99.90;;;;;;4973859;28;20057;-82
2021/03/15 07:00:46;;;;;;;13.00;3.30;;;5.40;99.90;;;;;;4990311;28;20033;-81
2021/03/15 07:03:20;;;;;;;14.15;2.95;;;5.40;99.90;;;;;;4973612;28;20033;-81
2021/03/15 07:06:07;;;;;;;10.82;2.90;;;5.50;99.90;;;;;;5007201;28;20062;-82
2021/03/15 07:08:33;;;;;;;8.75;2.10;;;5.50;99.90;;;;;;4933001;29;20091;-81
2021/03/15 07:10:59;;;;;;;13.02;3.05;;;5.50;99.90;;;;;;4910971;29;20060;-81
2021/03/15 07:13:33;;;;;;;10.18;2.05;;;5.50;99.90;;;;;;4911044;29;20063;-82
2021/03/15 07:15:58;;;;;;;13.45;3.03;;;5.50;99.90;;;;;;4932968;29;20027;-82
2021/03/15 07:18:32;;;;;;;9.70;2.72;;;5.60;99.90;;;;;;4915322;29;20040;-81
2021/03/15 07:21:01;;;;;;;9.05;2.42;;;5.60;99.90;;;;;;4914891;29;20040;-81
2021/03/15 07:23:39;;;;;;;14.88;3.03;;;5.60;99.90;;;;;;4914677;29;20134;-81
2021/03/15 07:26:18;;;;;;;8.10;2.20;;;5.60;99.90;;;;;;4914479;29;20047;-81
2021/03/15 07:28:46;;;;;;;7.00;2.45;;;5.70;99.90;;;;;;4946688;29;20047;-81
2021/03/15 07:31:23;;;;;;;12.48;2.10;;;5.70;99.90;;;;;;4946364;29;20032;-81
2021/03/15 07:33:55;;;;;;;16.15;3.22;;;5.70;99.90;;;;;;4930529;29;20044;-81
2021/03/15 07:36:26;;;;;;;14.77;2.00;;;5.70;99.90;;;;;;4930445;29;20047;-81
2021/03/15 07:38:52;;;;;;;11.05;1.88;;;5.70;99.90;;;;;;4914860;29;20531;-81
2021/03/15 07:41:19;;;;;;;11.00;2.53;;;5.70;99.90;;;;;;4931691;29;20050;-81
2021/03/15 07:43:46;;;;;;;15.93;2.55;;;5.80;99.90;;;;;;4914610;29;20059;-81
2021/03/15 07:46:38;;;;;;;12.00;1.98;;;5.80;99.90;;;;;;4957794;28;20073;-82
2021/03/15 07:49:04;;;;;;;15.18;2.22;;;5.80;99.90;;;;;;4988729;28;20050;-81
2021/03/15 07:51:31;;;;;;;15.43;3.03;;;5.80;99.90;;;;;;4989018;28;20053;-81
2021/03/15 07:54:10;;;;;;;18.80;2.58;;;5.90;99.90;;;;;;4972709;28;20033;-81
2021/03/15 07:56:37;;;;;;;17.38;1.80;;;5.90;99.90;;;;;;4972817;28;20030;-81
2021/03/15 07:59:04;;;;;;;11.57;1.13;;;6.00;99.90;;;;;;4989025;28;20038;-84
2021/03/15 08:01:32;;;;;;;10.32;1.42;;;6.00;99.90;;;;;;4972794;28;20089;-82
2021/03/15 08:03:58;;;;;;;9.38;0.90;;;6.00;99.90;;;;;;4972455;28;20031;-81
2021/03/15 08:06:24;;;;;;;12.02;1.02;;;6.10;99.90;;;;;;4972796;28;20089;-81
2021/03/15 08:08:50;;;;;;;9.18;0.75;;;6.10;99.90;;;;;;5005359;28;20049;-81
2021/03/15 08:11:18;;;;;;;12.43;1.08;;;6.20;99.90;;;;;;5008749;28;20038;-81
2021/03/15 08:13:49;;;;;;;12.75;0.70;;;6.20;99.90;;;;;;5008332;28;20026;-81
2021/03/15 08:16:19;;;;;;;11.85;0.80;;;6.20;99.90;;;;;;4991863;28;20041;-81
2021/03/15 08:18:47;;;;;;;12.13;0.88;;;6.30;99.90;;;;;;5008349;28;20217;-81
2021/03/15 08:21:35;;;;;;;10.82;0.80;;;6.30;99.90;;;;;;4970217;28;20037;-81
2021/03/15 08:24:01;;;;;;;9.88;1.40;;;6.40;99.90;;;;;;4985174;28;20030;-80
2021/03/15 08:26:27;;;;;;;6.40;0.60;;;6.40;99.90;;;;;;4970907;28;20040;-81
2021/03/15 08:28:58;;;;;;;11.15;1.15;;;6.40;99.90;;;;;;4985451;28;20054;-81
2021/03/15 08:31:29;;;;;;;13.10;1.15;;;6.50;99.90;;;;;;4987653;28;20034;-81
2021/03/15 08:33:55;;;;;;;9.77;0.68;;;6.70;99.90;;;;;;4965045;28;20036;-81
2021/03/15 08:36:21;;;;;;;9.80;0.60;;;6.80;99.90;;;;;;4970133;28;20038;-81
2021/03/15 08:38:47;;;;;;;11.77;0.40;;;6.70;99.90;;;;;;4972353;28;20030;-81
2021/03/15 08:41:27;;;;;;;10.02;0.43;;;6.70;99.90;;;;;;4972438;28;20038;-82
2021/03/15 08:43:53;;;;;;;9.73;0.50;;;6.90;99.90;;;;;;4988572;28;20038;-82
2021/03/15 08:46:22;;;;;;;9.02;0.50;;;7.10;99.90;;;;;;4971240;28;20088;-82
2021/03/15 08:48:51;;;;;;;10.88;0.50;;;7.30;99.90;;;;;;4972431;28;20061;-82
2021/03/15 08:51:37;;;;;;;15.65;0.60;;;7.10;99.90;;;;;;4973759;28;20022;-83
2021/03/15 08:54:05;;;;;;;11.00;0.55;;;6.80;99.90;;;;;;4968792;28;20046;-81
2021/03/15 08:56:30;;;;;;;6.65;0.38;;;6.90;99.90;;;;;;4953161;28;20038;-82
2021/03/15 08:59:01;;;;;;;17.00;0.88;;;7.20;99.90;;;;;;4953090;28;20103;-82
2021/03/15 09:01:47;;;;;;;5.82;0.38;;;7.00;99.90;;;;;;4952849;28;20342;-82
2021/03/15 09:04:28;;;;;;;14.07;0.50;;;7.00;99.90;;;;;;4985835;28;20043;-82
2021/03/15 09:06:54;;;;;;;7.35;0.30;;;7.20;99.90;;;;;;4969486;28;20395;-82
2021/03/15 09:09:32;;;;;;;7.28;0.50;;;7.20;99.90;;;;;;4987971;28;20057;-82
2021/03/15 09:12:03;;;;;;;9.88;0.50;;;7.20;99.90;;;;;;4988050;28;20145;-81
2021/03/15 09:14:32;;;;;;;9.80;0.55;;;7.10;99.90;;;;;;4971887;28;20390;-81
2021/03/15 09:17:13;;;;;;;11.68;0.30;;;7.00;99.90;;;;;;4985304;28;20065;-82
2021/03/15 09:19:39;;;;;;;5.18;0.30;;;6.90;99.90;;;;;;5007382;28;20038;-82
2021/03/15 09:22:06;;;;;;;6.40;0.40;;;6.90;99.90;;;;;;5007294;28;20037;-81
2021/03/15 09:24:53;;;;;;;7.20;0.40;;;7.10;99.90;;;;;;5007169;28;20057;-82
2021/03/15 09:27:29;;;;;;;8.85;0.38;;;7.20;99.90;;;;;;5007454;28;20041;-82
2021/03/15 09:30:10;;;;;;;6.38;0.20;;;7.20;99.90;;;;;;5007516;28;20456;-82
2021/03/15 09:32:35;;;;;;;;;;;7.30;99.90;;;;;;5007364;28;20029;-81
2021/03/15 09:35:15;;;;;;;7.82;0.70;;;7.70;99.90;;;;;;4990868;28;19996;-81
2021/03/15 09:37:48;;;;;;;11.02;0.30;;;7.90;99.90;;;;;;5026328;28;20041;-82
2021/03/15 09:40:18;;;;;;;5.32;0.20;;;7.80;99.90;;;;;;4995199;28;20034;-82
2021/03/15 09:42:44;;;;;;;6.15;0.20;;;7.60;99.90;;;;;;5011299;28;20045;-82
2021/03/15 09:45:13;;;;;;;5.20;0.20;;;7.50;99.90;;;;;;5028702;28;20038;-82
2021/03/15 09:47:39;;;;;;;12.20;0.20;;;7.40;99.90;;;;;;5010621;28;20029;-82
2021/03/15 09:50:24;;;;;;;5.32;0.30;;;7.60;99.90;;;;;;4994311;28;20105;-81
2021/03/15 09:53:08;;;;;;;2.35;0.15;;;8.00;99.90;;;;;;4995587;28;20057;-82
2021/03/15 09:55:35;;;;;;;4.35;0.30;;;7.80;99.90;;;;;;4994759;28;20433;-81
2021/03/15 09:58:09;;;;;;;8.02;0.20;;;7.80;99.90;;;;;;4994553;28;20057;-82
2021/03/15 10:00:41;;;;;;;5.53;0.20;;;7.90;99.90;;;;;;4995453;28;20026;-81
2021/03/15 10:03:26;;;;;;;9.35;0.40;;;7.80;99.90;;;;;;5013370;28;20125;-81
2021/03/15 10:06:22;;;;;;;6.05;0.35;;;7.80;99.90;;;;;;5003024;28;20034;-82
2021/03/15 10:09:11;;;;;;;4.55;0.20;;;7.80;99.90;;;;;;5005961;28;20056;-81
2021/03/15 10:11:55;;;;;;;7.93;0.28;;;7.60;99.90;;;;;;5013201;28;20128;-82
2021/03/15 10:14:39;;;;;;;3.58;0.28;;;7.40;99.90;;;;;;5013379;28;20052;-82
2021/03/15 10:17:22;;;;;;;4.22;0.28;;;7.30;99.90;;;;;;4996267;28;20061;-82
2021/03/15 10:20:07;;;;;;;7.82;0.35;;;7.20;99.90;;;;;;4996327;28;20075;-82
2021/03/15 10:22:34;;;;;;;8.02;0.30;;;7.30;99.90;;;;;;4993916;28;20030;-81
2021/03/15 10:25:03;;;;;;;7.43;0.30;;;7.70;99.90;;;;;;5010449;28;20107;-82
2021/03/15 10:27:37;;;;;;;5.32;0.28;;;8.00;99.90;;;;;;4994977;28;20098;-82
2021/03/15 10:30:08;;;;;;;4.80;0.30;;;8.20;99.90;;;;;;5010250;28;20433;-81
2021/03/15 10:32:39;;;;;;;4.65;0.30;;;8.00;99.90;;;;;;4993900;28;20449;-82
2021/03/15 10:35:07;;;;;;;5.55;0.43;;;7.90;99.90;;;;;;4993834;28;20033;-82
2021/03/15 10:37:52;;;;;;;6.20;0.30;;;8.10;99.90;;;;;;4995754;28;20030;-81
2021/03/15 10:40:26;;;;;;;10.20;0.30;;;8.20;99.90;;;;;;4994883;28;20040;-82
2021/03/15 10:42:54;;;;;;;6.32;0.20;;;8.10;99.90;;;;;;4993843;28;20084;-81
2021/03/15 10:45:27;;;;;;;8.55;0.30;;;8.00;99.90;;;;;;5010108;28;20030;-83
2021/03/15 10:48:02;;;;;;;6.55;0.40;;;8.10;99.90;;;;;;4993886;28;20038;-82
2021/03/15 10:50:40;;;;;;;6.90;0.40;;;8.10;99.90;;;;;;4994258;28;20030;-81
2021/03/15 10:53:22;;;;;;;6.05;0.30;;;8.20;99.90;;;;;;5009711;28;20033;-82
2021/03/15 10:55:49;;;;;;;9.60;0.30;;;8.10;99.90;;;;;;4993584;28;20049;-81
2021/03/15 10:58:21;;;;;;;5.13;0.30;;;7.90;99.90;;;;;;4994140;28;20053;-82
2021/03/15 11:01:03;;;;;;;11.60;0.40;;;7.80;99.90;;;;;;4994907;28;20030;-82
2021/03/15 11:03:35;;;;;;;7.40;0.40;;;7.70;99.90;;;;;;4994020;28;20034;-82
2021/03/15 11:06:13;;;;;;;7.93;0.30;;;8.00;99.90;;;;;;4994273;28;20037;-81
2021/03/15 11:08:41;;;;;;;3.35;0.30;;;7.90;99.90;;;;;;4993296;28;20048;-81
2021/03/15 11:11:18;;;;;;;4.15;0.50;;;7.80;99.90;;;;;;4993268;28;20038;-81
2021/03/15 11:13:52;;;;;;;7.10;0.30;;;7.90;99.90;;;;;;4994004;28;20029;-81
2021/03/15 11:16:31;;;;;;;5.78;0.50;;;7.80;99.90;;;;;;4993567;28;20057;-80
2021/03/15 11:19:03;;;;;;;7.10;0.30;;;8.00;99.90;;;;;;4993245;28;20240;-82
2021/03/15 11:21:30;;;;;;;8.50;0.30;;;8.20;99.90;;;;;;4990164;28;20034;-81
2021/03/15 11:24:07;;;;;;;7.57;0.30;;;8.00;99.90;;;;;;4994497;28;20026;-81
2021/03/15 11:26:53;;;;;;;3.95;0.45;;;8.10;99.90;;;;;;4995395;28;20153;-81
2021/03/15 11:29:39;;;;;;;8.02;0.38;;;8.00;99.90;;;;;;4994150;28;20041;-81
2021/03/15 11:32:18;;;;;;;7.80;0.30;;;8.00;99.90;;;;;;5008928;28;20097;-81
2021/03/15 11:34:52;;;;;;;6.13;0.30;;;8.10;99.90;;;;;;4993845;28;20095;-81
2021/03/15 11:37:29;;;;;;;6.32;0.30;;;8.10;99.90;;;;;;4992747;28;20026;-82
2021/03/15 11:40:11;;;;;;;9.15;0.60;;;7.70;99.90;;;;;;4994760;28;20113;-82
2021/03/15 11:42:53;;;;;;;5.70;0.20;;;7.80;99.90;;;;;;4993317;28;20041;-81
2021/03/15 11:45:18;;;;;;;3.50;0.28;;;7.60;99.90;;;;;;5008898;28;20042;-81
2021/03/15 11:47:47;;;;;;;5.05;0.40;;;8.00;99.90;;;;;;4992599;28;20037;-81
2021/03/15 11:50:19;;;;;;;8.80;0.60;;;7.60;99.90;;;;;;4989268;28;20237;-82
2021/03/15 11:52:59;;;;;;;3.50;0.20;;;7.30;99.90;;;;;;4989320;28;20034;-81
2021/03/15 11:55:29;;;;;;;;;;;7.70;99.90;;;;;;4989755;28;20040;-81
2021/03/15 11:57:55;;;;;;;3.70;0.20;;;7.90;99.90;;;;;;4989078;28;19937;-81
2021/03/15 12:00:23;;;;;;;5.70;0.55;;;8.30;99.90;;;;;;4988603;28;20022;-81
2021/03/15 12:03:01;;;;;;;7.40;0.60;;;8.30;99.90;;;;;;4988951;28;20033;-82
2021/03/15 12:06:06;;;;;;;8.63;0.50;;;8.10;99.90;;;;;;5005207;28;20181;-81
2021/03/15 12:08:42;;;;;;;7.03;0.60;;;8.10;99.90;;;;;;4908001;29;20080;-82
2021/03/15 12:11:08;;;;;;;10.05;0.50;;;8.50;99.90;;;;;;4907735;29;20096;-82
2021/03/15 12:13:34;;;;;;;8.05;0.50;;;8.60;99.90;;;;;;4907827;29;20040;-81
2021/03/15 12:16:00;;;;;;;12.13;0.40;;;8.40;99.90;;;;;;4913637;29;20035;-81
2021/03/15 12:18:26;;;;;;;6.22;0.50;;;8.50;99.90;;;;;;4895537;29;20036;-82
2021/03/15 12:20:58;;;;;;;13.38;0.85;;;9.10;99.90;;;;;;4910892;29;20603;-81
2021/03/15 12:23:25;;;;;;;9.57;0.40;;;9.40;99.90;;;;;;4895477;29;20054;-82
2021/03/15 12:25:51;;;;;;;12.77;0.60;;;8.60;99.90;;;;;;4895192;29;20048;-82
2021/03/15 12:28:25;;;;;;;16.88;0.75;;;8.30;99.90;;;;;;4910755;29;20130;-82
2021/03/15 12:30:55;;;;;;;6.78;0.60;;;9.00;99.90;;;;;;4910948;29;20036;-82
2021/03/15 12:33:21;;;;;;;14.93;0.68;;;9.10;99.90;;;;;;4910653;29;20032;-82
2021/03/15 12:35:48;;;;;;;8.52;0.47;;;8.90;99.90;;;;;;4894909;29;20028;-82
2021/03/15 12:38:14;;;;;;;4.25;0.30;;;8.70;99.90;;;;;;4895193;29;20039;-81
2021/03/15 12:40:42;;;;;;;13.68;0.80;;;9.00;99.90;;;;;;4895333;29;20028;-82
2021/03/15 12:43:08;;;;;;;6.93;0.30;;;9.10;99.90;;;;;;4895054;29;20071;-82
2021/03/15 12:45:34;;;;;;;6.90;0.38;;;9.00;99.90;;;;;;4932955;28;20089;-82
2021/03/15 12:48:02;;;;;;;8.82;0.38;;;9.30;99.90;;;;;;4972521;28;20031;-82
2021/03/15 12:50:28;;;;;;;5.22;0.32;;;8.90;99.90;;;;;;4978917;28;20045;-81
2021/03/15 12:52:57;;;;;;;5.55;0.20;;;8.50;99.90;;;;;;4991900;28;20268;-81
2021/03/15 12:55:37;;;;;;;9.20;0.30;;;8.00;99.90;;;;;;4993318;28;20026;-81
2021/03/15 12:58:03;;;;;;;5.55;0.20;;;7.80;99.90;;;;;;4991631;28;20105;-81
2021/03/15 13:00:28;;;;;;;6.15;0.30;;;7.80;99.90;;;;;;4991376;28;20075;-82
2021/03/15 13:03:14;;;;;;;6.32;0.25;;;7.80;99.90;;;;;;5009914;28;20486;-81
2021/03/15 13:06:00;;;;;;;5.88;0.38;;;7.90;99.90;;;;;;4991025;28;20063;-81
2021/03/15 13:08:36;;;;;;;10.15;0.45;;;7.90;99.90;;;;;;4909935;29;20048;-82
2021/03/15 13:11:21;;;;;;;7.35;0.30;;;7.60;99.90;;;;;;4910773;29;20029;-82
2021/03/15 13:14:03;;;;;;;6.57;0.28;;;7.80;99.90;;;;;;4910973;29;20144;-82
2021/03/15 13:16:31;;;;;;;6.13;0.35;;;8.00;99.90;;;;;;4920354;29;20046;-82
2021/03/15 13:18:57;;;;;;;3.40;0.43;;;8.20;99.90;;;;;;4945244;29;20040;-82